TimeAKDT,TemperatureF,Dew PointF,Humidity,Sea Level PressureIn,VisibilityMPH,Wind Direction,Wind SpeedMPH,Gust SpeedMPH,PrecipitationIn,Events,Conditions,WindDirDegrees,DateUTC
12:35 AM,3.2,-0.4,85,29.68,2.0,West,9.2,-,0.00,Snow,Light Snow,280,2013-03-25 08:35:00
12:53 AM,3.9,-0.0,84,29.81,2.0,West,8.1,-,0.00,Snow,Light Snow,280,2013-03-25 08:53:00
1:19 AM,3.2,-0.4,85,29.67,3.0,WNW,9.2,-,0.00,Snow,Light Snow,290,2013-03-25 09:19:00
1:30 AM,3.2,-0.4,85,29.67,2.5,West,6.9,-,0.01,Snow,Light Snow,280,2013-03-25 09:30:00
1:53 AM,3.9,-0.9,80,29.80,1.8,WNW,6.9,-,0.01,Snow,Light Snow,290,2013-03-25 09:53:00
2:02 AM,3.2,-0.4,85,29.66,2.5,WNW,6.9,-,0.00,Snow,Light Snow,290,2013-03-25 10:02:00
2:10 AM,3.2,-0.4,85,29.67,3.0,West,6.9,-,0.00,Snow,Light Snow,280,2013-03-25 10:10:00
2:53 AM,3.9,-0.9,80,29.79,6.0,WNW,9.2,-,0.00,,Haze,290,2013-03-25 10:53:00
3:53 AM,3.0,-2.0,80,29.79,5.0,WNW,6.9,-,0.00,Snow,Light Snow,290,2013-03-25 11:53:00
4:53 AM,3.0,-2.0,80,29.77,5.0,WNW,4.6,-,0.00,Snow,Light Snow,290,2013-03-25 12:53:00
5:20 AM,3.2,-2.2,78,29.64,2.0,WNW,4.6,-,0.00,Snow,Light Snow,290,2013-03-25 13:20:00
5:53 AM,1.9,-2.0,83,29.76,3.0,WNW,4.6,-,0.00,Snow,Light Snow,290,2013-03-25 13:53:00
6:05 AM,1.4,-2.2,85,29.62,2.0,WNW,6.9,-,0.00,Snow,Light Snow,290,2013-03-25 14:05:00
6:49 AM,1.4,-2.2,85,29.62,4.0,NW,3.5,-,0.01,Snow,Light Snow,320,2013-03-25 14:49:00
6:53 AM,1.9,-2.0,83,29.75,4.0,NW,4.6,-,0.01,Snow,Light Snow,310,2013-03-25 14:53:00
7:53 AM,1.9,-2.9,80,29.74,5.0,WNW,6.9,-,0.00,Snow,Light Snow,300,2013-03-25 15:53:00
8:53 AM,1.9,-2.9,80,29.73,4.0,WNW,5.8,-,0.00,Snow,Light Snow,290,2013-03-25 16:53:00
9:53 AM,1.9,-2.9,80,29.72,4.0,West,6.9,-,0.00,Snow,Light Snow,270,2013-03-25 17:53:00
10:53 AM,1.9,-2.9,80,29.71,4.0,West,6.9,-,0.00,Snow,Light Snow,270,2013-03-25 18:53:00
11:53 AM,3.0,-2.9,76,29.71,3.0,West,5.8,-,0.00,Snow,Light Snow,280,2013-03-25 19:53:00
12:53 PM,3.9,-2.9,73,29.70,3.0,West,8.1,-,0.00,Snow,Light Snow,270,2013-03-25 20:53:00
1:20 PM,3.2,-2.2,78,29.56,2.5,West,6.9,-,0.00,Snow,Light Snow,260,2013-03-25 21:20:00
1:53 PM,5.0,-0.9,76,29.70,1.5,NW,4.6,-,0.00,Snow,Light Snow,320,2013-03-25 21:53:00
2:11 PM,5.0,-0.4,78,29.55,1.0,NW,4.6,-,0.01,Snow,Light Snow,320,2013-03-25 22:11:00
2:20 PM,5.0,-0.4,78,29.55,0.8,WNW,4.6,-,0.01,Snow,Light Snow,300,2013-03-25 22:20:00
2:31 PM,5.0,-0.4,78,29.56,1.5,NW,5.8,-,0.01,Snow,Light Snow,320,2013-03-25 22:31:00
2:39 PM,6.8,-0.4,72,29.56,3.0,NW,6.9,-,0.01,Snow,Light Snow,310,2013-03-25 22:39:00
2:53 PM,6.1,-0.9,73,29.70,3.0,NW,8.1,-,0.01,Snow,Light Snow,320,2013-03-25 22:53:00
3:53 PM,7.0,-2.0,67,29.71,6.0,NW,9.2,-,0.00,Snow,Light Snow,320,2013-03-25 23:53:00
4:00 PM,6.8,-2.2,67,29.57,6.0,NW,8.1,-,0.00,Snow,Light Snow,320,2013-03-26 00:00:00
4:53 PM,6.1,-2.9,67,29.72,10.0,NW,11.5,-,0.00,,Overcast,310,2013-03-26 00:53:00
5:24 PM,6.8,-2.2,67,29.58,10.0,NW,9.2,-,N/A,,Overcast,310,2013-03-26 01:24:00
5:53 PM,6.1,-2.0,69,29.72,10.0,NW,9.2,-,N/A,,Overcast,320,2013-03-26 01:53:00
6:53 PM,6.1,-2.0,69,29.74,10.0,NNW,9.2,-,N/A,,Overcast,330,2013-03-26 02:53:00
7:11 PM,6.8,-2.2,67,29.60,10.0,NW,11.5,-,N/A,,Overcast,310,2013-03-26 03:11:00
7:53 PM,5.0,-5.1,63,29.75,10.0,WNW,10.4,-,N/A,,Overcast,290,2013-03-26 03:53:00
8:53 PM,3.9,-5.1,66,29.79,10.0,WNW,8.1,-,N/A,,Overcast,300,2013-03-26 04:53:00
9:53 PM,3.0,-5.1,69,29.82,10.0,WNW,5.8,-,N/A,,Clear,290,2013-03-26 05:53:00
10:19 PM,1.4,-5.8,72,29.67,10.0,WNW,8.1,-,N/A,,Mostly Cloudy,290,2013-03-26 06:19:00
10:53 PM,1.9,-4.0,76,29.84,10.0,WNW,8.1,-,N/A,,Mostly Cloudy,290,2013-03-26 06:53:00
11:17 PM,1.4,-4.0,78,29.69,10.0,WNW,12.7,-,N/A,,Mostly Cloudy,290,2013-03-26 07:17:00
11:53 PM,1.0,-6.0,72,29.86,10.0,NW,13.8,-,N/A,,Overcast,310,2013-03-26 07:53:00